sensor_id;sensor_type;location;lat;lon;timestamp;temperature;humidity
14097;DHT22;7125;48.106;11.544;2022-10-29T00:00:50;11.40;99.90
14097;DHT22;7125;48.106;11.544;2022-10-29T00:03:17;11.40;99.90
14097;DHT22;7125;48.106;11.544;2022-10-29T00:05:54;11.30;99.90
14097;DHT22;7125;48.106;11.544;2022-10-29T00:08:22;11.30;99.90
14097;DHT22;7125;48.106;11.544;2022-10-29T00:10:49;11.30;99.90
14097;DHT22;7125;48.106;11.544;2022-10-29T00:13:16;11.30;99.90
14097;DHT22;7125;48.106;11.544;2022-10-29T00:15:42;11.30;99.90
14097;DHT22;7125;48.106;11.544;2022-10-29T00:18:09;11.30;99.90
14097;DHT22;7125;48.106;11.544;2022-10-29T00:20:36;11.30;99.90
14097;DHT22;7125;48.106;11.544;2022-10-29T00:23:03;11.40;99.90
14097;DHT22;7125;48.106;11.544;2022-10-29T00:25:31;11.40;99.90
14097;DHT22;7125;48.106;11.544;2022-10-29T00:27:58;11.40;99.90
14097;DHT22;7125;48.106;11.544;2022-10-29T00:30:25;11.40;99.90
14097;DHT22;7125;48.106;11.544;2022-10-29T00:32:52;11.40;99.90
14097;DHT22;7125;48.106;11.544;2022-10-29T00:35:19;11.40;99.90
14097;DHT22;7125;48.106;11.544;2022-10-29T00:37:48;11.40;99.90
14097;DHT22;7125;48.106;11.544;2022-10-29T00:40:15;11.30;99.90
14097;DHT22;7125;48.106;11.544;2022-10-29T00:42:43;11.40;99.90
14097;DHT22;7125;48.106;11.544;2022-10-29T00:45:17;11.30;99.90
14097;DHT22;7125;48.106;11.544;2022-10-29T00:47:49;11.30;99.90
14097;DHT22;7125;48.106;11.544;2022-10-29T00:50:17;11.30;99.90
14097;DHT22;7125;48.106;11.544;2022-10-29T00:52:48;11.30;99.90
14097;DHT22;7125;48.106;11.544;2022-10-29T00:55:17;11.30;99.90
14097;DHT22;7125;48.106;11.544;2022-10-29T00:57:49;11.20;99.90
14097;DHT22;7125;48.106;11.544;2022-10-29T01:00:19;11.20;99.90
14097;DHT22;7125;48.106;11.544;2022-10-29T01:02:46;11.20;99.90
14097;DHT22;7125;48.106;11.544;2022-10-29T01:05:16;11.10;99.90
14097;DHT22;7125;48.106;11.544;2022-10-29T01:07:45;11.10;99.90
14097;DHT22;7125;48.106;11.544;2022-10-29T01:10:14;11.00;99.90
14097;DHT22;7125;48.106;11.544;2022-10-29T01:13:09;11.00;99.90
14097;DHT22;7125;48.106;11.544;2022-10-29T01:15:45;10.90;99.90
14097;DHT22;7125;48.106;11.544;2022-10-29T01:18:19;10.90;99.90
14097;DHT22;7125;48.106;11.544;2022-10-29T01:21:23;10.90;99.90
14097;DHT22;7125;48.106;11.544;2022-10-29T01:24:26;10.80;99.90
14097;DHT22;7125;48.106;11.544;2022-10-29T01:30:09;10.70;99.90
14097;DHT22;7125;48.106;11.544;2022-10-29T01:32:48;10.70;99.90
14097;DHT22;7125;48.106;11.544;2022-10-29T01:35:20;10.70;99.90
14097;DHT22;7125;48.106;11.544;2022-10-29T01:37:58;10.60;99.90
14097;DHT22;7125;48.106;11.544;2022-10-29T01:40:35;10.60;99.90
14097;DHT22;7125;48.106;11.544;2022-10-29T01:43:05;10.60;99.90
14097;DHT22;7125;48.106;11.544;2022-10-29T01:45:37;10.60;99.90
14097;DHT22;7125;48.106;11.544;2022-10-29T01:48:09;10.50;99.90
14097;DHT22;7125;48.106;11.544;2022-10-29T01:50:39;10.50;99.90
14097;DHT22;7125;48.106;11.544;2022-10-29T01:53:08;10.50;99.90
14097;DHT22;7125;48.106;11.544;2022-10-29T01:55:35;10.50;99.90
14097;DHT22;7125;48.106;11.544;2022-10-29T01:58:03;10.50;99.90
14097;DHT22;7125;48.106;11.544;2022-10-29T02:00:35;10.40;99.90
14097;DHT22;7125;48.106;11.544;2022-10-29T02:03:22;10.40;99.90
14097;DHT22;7125;48.106;11.544;2022-10-29T02:05:56;10.40;99.90
14097;DHT22;7125;48.106;11.544;2022-10-29T02:08:31;10.40;99.90
14097;DHT22;7125;48.106;11.544;2022-10-29T02:11:06;10.40;99.90
14097;DHT22;7125;48.106;11.544;2022-10-29T02:13:40;10.30;99.90
14097;DHT22;7125;48.106;11.544;2022-10-29T02:16:10;10.30;99.90
14097;DHT22;7125;48.106;11.544;2022-10-29T02:18:42;10.30;99.90
14097;DHT22;7125;48.106;11.544;2022-10-29T02:31:49;10.20;99.90
14097;DHT22;7125;48.106;11.544;2022-10-29T02:34:17;10.20;99.90
14097;DHT22;7125;48.106;11.544;2022-10-29T02:36:44;10.20;99.90
14097;DHT22;7125;48.106;11.544;2022-10-29T02:39:11;10.20;99.90
14097;DHT22;7125;48.106;11.544;2022-10-29T02:41:38;10.20;99.90
14097;DHT22;7125;48.106;11.544;2022-10-29T02:44:05;10.20;99.90
14097;DHT22;7125;48.106;11.544;2022-10-29T02:46:32;10.20;99.90
14097;DHT22;7125;48.106;11.544;2022-10-29T02:49:00;10.20;99.90
14097;DHT22;7125;48.106;11.544;2022-10-29T02:51:28;10.20;99.90
14097;DHT22;7125;48.106;11.544;2022-10-29T02:53:55;10.20;99.90
14097;DHT22;7125;48.106;11.544;2022-10-29T02:56:22;10.20;99.90
14097;DHT22;7125;48.106;11.544;2022-10-29T03:04:08;10.10;99.90
14097;DHT22;7125;48.106;11.544;2022-10-29T03:06:37;10.10;99.90
14097;DHT22;7125;48.106;11.544;2022-10-29T03:09:04;10.10;99.90
14097;DHT22;7125;48.106;11.544;2022-10-29T03:11:31;10.10;99.90
14097;DHT22;7125;48.106;11.544;2022-10-29T03:13:58;10.10;99.90
14097;DHT22;7125;48.106;11.544;2022-10-29T03:16:25;10.10;99.90
14097;DHT22;7125;48.106;11.544;2022-10-29T03:18:51;10.10;99.90
14097;DHT22;7125;48.106;11.544;2022-10-29T03:21:18;10.10;99.90
14097;DHT22;7125;48.106;11.544;2022-10-29T03:23:47;10.10;99.90
14097;DHT22;7125;48.106;11.544;2022-10-29T03:26:13;10.10;99.90
14097;DHT22;7125;48.106;11.544;2022-10-29T03:28:40;10.10;99.90
14097;DHT22;7125;48.106;11.544;2022-10-29T03:31:07;10.10;99.90
14097;DHT22;7125;48.106;11.544;2022-10-29T03:33:34;10.00;99.90
14097;DHT22;7125;48.106;11.544;2022-10-29T03:36:03;10.00;99.90
14097;DHT22;7125;48.106;11.544;2022-10-29T03:38:31;10.00;99.90
14097;DHT22;7125;48.106;11.544;2022-10-29T03:41:00;10.00;99.90
14097;DHT22;7125;48.106;11.544;2022-10-29T03:43:33;10.00;99.90
14097;DHT22;7125;48.106;11.544;2022-10-29T03:46:00;10.00;99.90
14097;DHT22;7125;48.106;11.544;2022-10-29T03:48:27;10.00;99.90
14097;DHT22;7125;48.106;11.544;2022-10-29T03:50:54;10.00;99.90
14097;DHT22;7125;48.106;11.544;2022-10-29T03:53:22;10.00;99.90
14097;DHT22;7125;48.106;11.544;2022-10-29T03:55:49;10.00;99.90
14097;DHT22;7125;48.106;11.544;2022-10-29T03:58:18;10.00;99.90
14097;DHT22;7125;48.106;11.544;2022-10-29T04:00:52;10.00;99.90
14097;DHT22;7125;48.106;11.544;2022-10-29T04:03:19;10.00;99.90
14097;DHT22;7125;48.106;11.544;2022-10-29T04:05:46;10.00;99.90
14097;DHT22;7125;48.106;11.544;2022-10-29T04:08:13;10.00;99.90
14097;DHT22;7125;48.106;11.544;2022-10-29T04:10:43;10.00;99.90
14097;DHT22;7125;48.106;11.544;2022-10-29T04:13:11;10.00;99.90
14097;DHT22;7125;48.106;11.544;2022-10-29T04:15:39;10.00;99.90
14097;DHT22;7125;48.106;11.544;2022-10-29T04:18:07;10.10;99.90
14097;DHT22;7125;48.106;11.544;2022-10-29T04:20:34;10.10;99.90
14097;DHT22;7125;48.106;11.544;2022-10-29T04:23:02;10.20;99.90
14097;DHT22;7125;48.106;11.544;2022-10-29T04:25:29;10.20;99.90
14097;DHT22;7125;48.106;11.544;2022-10-29T04:27:56;10.20;99.90
14097;DHT22;7125;48.106;11.544;2022-10-29T04:30:23;10.30;99.90
14097;DHT22;7125;48.106;11.544;2022-10-29T04:32:55;10.40;99.90
14097;DHT22;7125;48.106;11.544;2022-10-29T04:35:22;10.40;99.90
14097;DHT22;7125;48.106;11.544;2022-10-29T04:37:49;10.40;99.90
14097;DHT22;7125;48.106;11.544;2022-10-29T04:40:16;10.40;99.90
14097;DHT22;7125;48.106;11.544;2022-10-29T04:42:43;10.50;99.90
14097;DHT22;7125;48.106;11.544;2022-10-29T04:45:10;10.50;99.90
14097;DHT22;7125;48.106;11.544;2022-10-29T04:47:37;10.50;99.90
14097;DHT22;7125;48.106;11.544;2022-10-29T04:50:06;10.60;99.90
14097;DHT22;7125;48.106;11.544;2022-10-29T04:52:33;10.60;99.90
14097;DHT22;7125;48.106;11.544;2022-10-29T04:54:59;10.60;99.90
14097;DHT22;7125;48.106;11.544;2022-10-29T04:57:26;10.60;99.90
14097;DHT22;7125;48.106;11.544;2022-10-29T04:59:53;10.60;99.90
14097;DHT22;7125;48.106;11.544;2022-10-29T05:02:20;10.70;99.90
14097;DHT22;7125;48.106;11.544;2022-10-29T05:04:47;10.70;99.90
14097;DHT22;7125;48.106;11.544;2022-10-29T05:07:15;10.70;99.90
14097;DHT22;7125;48.106;11.544;2022-10-29T05:09:42;10.70;99.90
14097;DHT22;7125;48.106;11.544;2022-10-29T05:12:09;10.70;99.90
14097;DHT22;7125;48.106;11.544;2022-10-29T05:14:35;10.70;99.90
14097;DHT22;7125;48.106;11.544;2022-10-29T05:17:02;10.70;99.90
14097;DHT22;7125;48.106;11.544;2022-10-29T05:19:29;10.70;99.90
14097;DHT22;7125;48.106;11.544;2022-10-29T05:21:56;10.70;99.90
14097;DHT22;7125;48.106;11.544;2022-10-29T05:24:24;10.60;99.90
14097;DHT22;7125;48.106;11.544;2022-10-29T05:26:51;10.60;99.90
14097;DHT22;7125;48.106;11.544;2022-10-29T05:29:18;10.50;99.90
14097;DHT22;7125;48.106;11.544;2022-10-29T05:31:45;10.50;99.90
14097;DHT22;7125;48.106;11.544;2022-10-29T05:34:11;10.50;99.90
14097;DHT22;7125;48.106;11.544;2022-10-29T05:36:38;10.50;99.90
14097;DHT22;7125;48.106;11.544;2022-10-29T05:39:05;10.50;99.90
14097;DHT22;7125;48.106;11.544;2022-10-29T05:41:33;10.50;99.90
14097;DHT22;7125;48.106;11.544;2022-10-29T05:44:00;10.50;99.90
14097;DHT22;7125;48.106;11.544;2022-10-29T05:46:27;10.50;99.90
14097;DHT22;7125;48.106;11.544;2022-10-29T05:48:54;10.50;99.90
14097;DHT22;7125;48.106;11.544;2022-10-29T05:51:21;10.50;99.90
14097;DHT22;7125;48.106;11.544;2022-10-29T05:53:48;10.60;99.90
14097;DHT22;7125;48.106;11.544;2022-10-29T05:56:15;10.60;99.90
14097;DHT22;7125;48.106;11.544;2022-10-29T05:58:43;10.70;99.90
14097;DHT22;7125;48.106;11.544;2022-10-29T06:01:10;10.70;99.90
14097;DHT22;7125;48.106;11.544;2022-10-29T06:03:37;10.70;99.90
14097;DHT22;7125;48.106;11.544;2022-10-29T06:06:05;10.70;99.90
14097;DHT22;7125;48.106;11.544;2022-10-29T06:08:31;10.70;99.90
14097;DHT22;7125;48.106;11.544;2022-10-29T06:11:00;10.70;99.90
14097;DHT22;7125;48.106;11.544;2022-10-29T06:13:27;10.70;99.90
14097;DHT22;7125;48.106;11.544;2022-10-29T06:15:57;10.70;99.90
14097;DHT22;7125;48.106;11.544;2022-10-29T06:18:25;10.70;99.90
14097;DHT22;7125;48.106;11.544;2022-10-29T06:20:52;10.70;99.90
14097;DHT22;7125;48.106;11.544;2022-10-29T06:23:19;10.80;99.90
14097;DHT22;7125;48.106;11.544;2022-10-29T06:25:46;10.80;99.90
14097;DHT22;7125;48.106;11.544;2022-10-29T06:28:13;10.80;99.90
14097;DHT22;7125;48.106;11.544;2022-10-29T06:30:45;10.90;99.90
14097;DHT22;7125;48.106;11.544;2022-10-29T06:33:14;10.90;99.90
14097;DHT22;7125;48.106;11.544;2022-10-29T06:35:41;10.90;99.90
14097;DHT22;7125;48.106;11.544;2022-10-29T06:38:08;10.90;99.90
14097;DHT22;7125;48.106;11.544;2022-10-29T06:40:35;10.90;99.90
14097;DHT22;7125;48.106;11.544;2022-10-29T06:43:03;11.00;99.90
14097;DHT22;7125;48.106;11.544;2022-10-29T06:45:31;11.00;99.90
14097;DHT22;7125;48.106;11.544;2022-10-29T06:48:00;11.00;99.90
14097;DHT22;7125;48.106;11.544;2022-10-29T06:50:31;11.10;99.90
14097;DHT22;7125;48.106;11.544;2022-10-29T06:52:59;11.20;99.90
14097;DHT22;7125;48.106;11.544;2022-10-29T06:55:26;11.30;99.90
14097;DHT22;7125;48.106;11.544;2022-10-29T06:57:57;11.30;99.90
14097;DHT22;7125;48.106;11.544;2022-10-29T07:00:24;11.40;99.90
14097;DHT22;7125;48.106;11.544;2022-10-29T07:02:51;11.50;99.90
14097;DHT22;7125;48.106;11.544;2022-10-29T07:05:18;11.60;99.90
14097;DHT22;7125;48.106;11.544;2022-10-29T07:07:47;11.70;99.90
14097;DHT22;7125;48.106;11.544;2022-10-29T07:10:14;11.90;99.90
14097;DHT22;7125;48.106;11.544;2022-10-29T07:12:42;12.00;99.90
14097;DHT22;7125;48.106;11.544;2022-10-29T07:15:09;12.10;99.90
14097;DHT22;7125;48.106;11.544;2022-10-29T07:17:37;12.30;99.90
14097;DHT22;7125;48.106;11.544;2022-10-29T07:20:06;12.50;99.90
14097;DHT22;7125;48.106;11.544;2022-10-29T07:22:33;12.60;99.90
14097;DHT22;7125;48.106;11.544;2022-10-29T07:25:02;12.80;99.90
14097;DHT22;7125;48.106;11.544;2022-10-29T07:27:28;13.00;99.90
14097;DHT22;7125;48.106;11.544;2022-10-29T07:29:55;13.20;99.90
14097;DHT22;7125;48.106;11.544;2022-10-29T07:32:22;13.40;99.90
14097;DHT22;7125;48.106;11.544;2022-10-29T07:34:49;13.60;99.90
14097;DHT22;7125;48.106;11.544;2022-10-29T07:37:16;13.80;99.90
14097;DHT22;7125;48.106;11.544;2022-10-29T07:39:43;14.00;99.90
14097;DHT22;7125;48.106;11.544;2022-10-29T07:42:11;14.10;99.90
14097;DHT22;7125;48.106;11.544;2022-10-29T07:44:38;14.30;99.90
14097;DHT22;7125;48.106;11.544;2022-10-29T07:47:05;14.40;99.90
14097;DHT22;7125;48.106;11.544;2022-10-29T07:49:32;14.50;99.90
14097;DHT22;7125;48.106;11.544;2022-10-29T07:51:59;14.70;99.90
14097;DHT22;7125;48.106;11.544;2022-10-29T07:54:26;14.80;99.90
14097;DHT22;7125;48.106;11.544;2022-10-29T07:56:53;14.90;99.90
14097;DHT22;7125;48.106;11.544;2022-10-29T07:59:21;14.90;99.90
14097;DHT22;7125;48.106;11.544;2022-10-29T08:01:48;15.00;99.90
14097;DHT22;7125;48.106;11.544;2022-10-29T08:04:15;15.10;99.90
14097;DHT22;7125;48.106;11.544;2022-10-29T08:06:41;15.20;99.90
14097;DHT22;7125;48.106;11.544;2022-10-29T08:09:09;15.20;99.90
14097;DHT22;7125;48.106;11.544;2022-10-29T08:11:36;15.30;99.90
14097;DHT22;7125;48.106;11.544;2022-10-29T08:14:04;15.40;99.90
14097;DHT22;7125;48.106;11.544;2022-10-29T08:16:32;15.40;99.90
14097;DHT22;7125;48.106;11.544;2022-10-29T08:18:59;15.50;99.90
14097;DHT22;7125;48.106;11.544;2022-10-29T08:21:26;15.60;99.90
14097;DHT22;7125;48.106;11.544;2022-10-29T08:23:53;15.60;99.90
14097;DHT22;7125;48.106;11.544;2022-10-29T08:26:20;15.70;99.90
14097;DHT22;7125;48.106;11.544;2022-10-29T08:28:47;15.80;99.90
14097;DHT22;7125;48.106;11.544;2022-10-29T08:31:14;15.90;99.90
14097;DHT22;7125;48.106;11.544;2022-10-29T08:33:43;16.00;99.90
14097;DHT22;7125;48.106;11.544;2022-10-29T08:36:09;16.10;99.90
14097;DHT22;7125;48.106;11.544;2022-10-29T08:38:36;16.10;99.90
14097;DHT22;7125;48.106;11.544;2022-10-29T08:41:28;16.20;99.90
14097;DHT22;7125;48.106;11.544;2022-10-29T08:44:20;16.30;99.90
14097;DHT22;7125;48.106;11.544;2022-10-29T08:46:55;16.40;99.90
14097;DHT22;7125;48.106;11.544;2022-10-29T08:49:27;16.50;99.90
14097;DHT22;7125;48.106;11.544;2022-10-29T08:52:02;16.60;99.90
14097;DHT22;7125;48.106;11.544;2022-10-29T08:54:34;16.60;99.90
14097;DHT22;7125;48.106;11.544;2022-10-29T08:57:06;16.70;99.90
14097;DHT22;7125;48.106;11.544;2022-10-29T08:59:37;16.80;99.90
14097;DHT22;7125;48.106;11.544;2022-10-29T09:02:12;16.90;99.90
14097;DHT22;7125;48.106;11.544;2022-10-29T09:04:42;17.10;99.90
14097;DHT22;7125;48.106;11.544;2022-10-29T09:07:44;17.10;99.90
14097;DHT22;7125;48.106;11.544;2022-10-29T09:10:21;17.20;99.90
14097;DHT22;7125;48.106;11.544;2022-10-29T09:12:59;17.20;99.90
14097;DHT22;7125;48.106;11.544;2022-10-29T09:15:43;17.20;99.90
14097;DHT22;7125;48.106;11.544;2022-10-29T09:18:27;17.30;99.90
14097;DHT22;7125;48.106;11.544;2022-10-29T09:21:17;17.30;99.90
14097;DHT22;7125;48.106;11.544;2022-10-29T09:23:57;17.40;99.90
14097;DHT22;7125;48.106;11.544;2022-10-29T09:26:30;17.50;99.90
14097;DHT22;7125;48.106;11.544;2022-10-29T09:29:23;17.60;99.90
14097;DHT22;7125;48.106;11.544;2022-10-29T09:31:55;17.80;99.90
14097;DHT22;7125;48.106;11.544;2022-10-29T09:34:27;17.90;99.90
14097;DHT22;7125;48.106;11.544;2022-10-29T09:36:57;18.10;99.90
14097;DHT22;7125;48.106;11.544;2022-10-29T09:39:27;18.30;99.90
14097;DHT22;7125;48.106;11.544;2022-10-29T09:41:58;18.40;99.90
14097;DHT22;7125;48.106;11.544;2022-10-29T09:44:34;18.50;99.90
14097;DHT22;7125;48.106;11.544;2022-10-29T09:47:10;18.60;99.90
14097;DHT22;7125;48.106;11.544;2022-10-29T09:49:49;18.70;99.90
14097;DHT22;7125;48.106;11.544;2022-10-29T09:52:23;18.80;99.90
14097;DHT22;7125;48.106;11.544;2022-10-29T09:54:52;18.90;99.90
14097;DHT22;7125;48.106;11.544;2022-10-29T09:57:22;18.90;99.90
14097;DHT22;7125;48.106;11.544;2022-10-29T09:59:52;18.90;99.90
14097;DHT22;7125;48.106;11.544;2022-10-29T10:02:29;18.90;99.90
14097;DHT22;7125;48.106;11.544;2022-10-29T10:05:03;18.90;99.90
14097;DHT22;7125;48.106;11.544;2022-10-29T10:07:31;18.90;99.90
14097;DHT22;7125;48.106;11.544;2022-10-29T10:09:59;19.00;99.90
14097;DHT22;7125;48.106;11.544;2022-10-29T10:12:28;19.00;99.90
14097;DHT22;7125;48.106;11.544;2022-10-29T10:15:18;19.00;99.90
14097;DHT22;7125;48.106;11.544;2022-10-29T10:17:53;19.20;99.90
14097;DHT22;7125;48.106;11.544;2022-10-29T10:20:30;19.40;99.90
14097;DHT22;7125;48.106;11.544;2022-10-29T10:22:59;19.60;99.90
14097;DHT22;7125;48.106;11.544;2022-10-29T10:25:35;19.90;99.90
14097;DHT22;7125;48.106;11.544;2022-10-29T10:28:04;20.10;99.90
14097;DHT22;7125;48.106;11.544;2022-10-29T10:30:40;20.30;99.90
14097;DHT22;7125;48.106;11.544;2022-10-29T10:33:22;20.40;99.90
14097;DHT22;7125;48.106;11.544;2022-10-29T10:35:51;20.50;99.90
14097;DHT22;7125;48.106;11.544;2022-10-29T10:38:20;20.60;99.90
14097;DHT22;7125;48.106;11.544;2022-10-29T10:40:54;20.70;99.90
14097;DHT22;7125;48.106;11.544;2022-10-29T10:43:23;20.70;99.90
14097;DHT22;7125;48.106;11.544;2022-10-29T10:45:56;20.70;99.90
14097;DHT22;7125;48.106;11.544;2022-10-29T10:48:25;20.70;99.90
14097;DHT22;7125;48.106;11.544;2022-10-29T10:51:08;20.70;99.10
14097;DHT22;7125;48.106;11.544;2022-10-29T10:53:38;20.80;99.20
14097;DHT22;7125;48.106;11.544;2022-10-29T10:56:15;20.80;96.60
14097;DHT22;7125;48.106;11.544;2022-10-29T10:58:47;20.90;97.30
14097;DHT22;7125;48.106;11.544;2022-10-29T11:01:19;21.00;97.30
14097;DHT22;7125;48.106;11.544;2022-10-29T11:03:50;21.00;97.70
14097;DHT22;7125;48.106;11.544;2022-10-29T11:06:24;21.10;97.70
14097;DHT22;7125;48.106;11.544;2022-10-29T11:08:58;21.20;98.20
14097;DHT22;7125;48.106;11.544;2022-10-29T11:11:30;21.20;97.90
14097;DHT22;7125;48.106;11.544;2022-10-29T11:14:02;21.20;98.10
14097;DHT22;7125;48.106;11.544;2022-10-29T11:16:36;21.20;97.80
14097;DHT22;7125;48.106;11.544;2022-10-29T11:19:12;21.30;97.50
14097;DHT22;7125;48.106;11.544;2022-10-29T11:21:45;21.30;96.90
14097;DHT22;7125;48.106;11.544;2022-10-29T11:24:21;21.30;97.50
14097;DHT22;7125;48.106;11.544;2022-10-29T11:26:54;21.40;96.20
14097;DHT22;7125;48.106;11.544;2022-10-29T11:29:34;21.40;97.50
14097;DHT22;7125;48.106;11.544;2022-10-29T11:32:09;21.40;96.50
14097;DHT22;7125;48.106;11.544;2022-10-29T11:34:44;21.50;96.50
14097;DHT22;7125;48.106;11.544;2022-10-29T11:37:19;21.60;96.50
14097;DHT22;7125;48.106;11.544;2022-10-29T11:39:54;21.70;95.60
14097;DHT22;7125;48.106;11.544;2022-10-29T11:42:24;21.80;95.80
14097;DHT22;7125;48.106;11.544;2022-10-29T11:44:51;21.90;92.70
14097;DHT22;7125;48.106;11.544;2022-10-29T11:47:35;22.00;93.90
14097;DHT22;7125;48.106;11.544;2022-10-29T11:50:17;22.10;94.50
14097;DHT22;7125;48.106;11.544;2022-10-29T11:52:53;22.20;94.80
14097;DHT22;7125;48.106;11.544;2022-10-29T11:55:34;22.30;93.80
14097;DHT22;7125;48.106;11.544;2022-10-29T11:58:12;22.50;90.20
14097;DHT22;7125;48.106;11.544;2022-10-29T12:00:50;22.70;90.30
14097;DHT22;7125;48.106;11.544;2022-10-29T12:03:45;22.90;90.00
14097;DHT22;7125;48.106;11.544;2022-10-29T12:06:15;22.90;89.30
14097;DHT22;7125;48.106;11.544;2022-10-29T12:08:55;22.90;89.10
14097;DHT22;7125;48.106;11.544;2022-10-29T12:11:33;22.90;90.40
14097;DHT22;7125;48.106;11.544;2022-10-29T12:14:20;22.90;90.00
14097;DHT22;7125;48.106;11.544;2022-10-29T12:16:56;22.90;90.60
14097;DHT22;7125;48.106;11.544;2022-10-29T12:19:35;22.80;90.70
14097;DHT22;7125;48.106;11.544;2022-10-29T12:22:14;22.90;89.40
14097;DHT22;7125;48.106;11.544;2022-10-29T12:25:06;22.90;89.60
14097;DHT22;7125;48.106;11.544;2022-10-29T12:27:44;23.20;83.70
14097;DHT22;7125;48.106;11.544;2022-10-29T12:30:14;23.30;84.10
14097;DHT22;7125;48.106;11.544;2022-10-29T12:32:53;23.30;84.50
14097;DHT22;7125;48.106;11.544;2022-10-29T12:35:28;23.30;82.70
14097;DHT22;7125;48.106;11.544;2022-10-29T12:38:09;23.30;82.80
14097;DHT22;7125;48.106;11.544;2022-10-29T12:40:42;23.30;85.00
14097;DHT22;7125;48.106;11.544;2022-10-29T12:43:24;23.30;86.60
14097;DHT22;7125;48.106;11.544;2022-10-29T12:45:57;23.20;86.80
14097;DHT22;7125;48.106;11.544;2022-10-29T12:48:33;23.10;85.60
14097;DHT22;7125;48.106;11.544;2022-10-29T12:51:05;23.10;84.40
14097;DHT22;7125;48.106;11.544;2022-10-29T12:53:42;23.10;85.20
14097;DHT22;7125;48.106;11.544;2022-10-29T12:56:12;23.10;87.30
14097;DHT22;7125;48.106;11.544;2022-10-29T12:58:47;23.10;87.50
14097;DHT22;7125;48.106;11.544;2022-10-29T13:01:42;23.00;88.90
14097;DHT22;7125;48.106;11.544;2022-10-29T13:04:25;23.00;90.00
14097;DHT22;7125;48.106;11.544;2022-10-29T13:13:00;22.90;82.60
14097;DHT22;7125;48.106;11.544;2022-10-29T13:15:33;22.90;86.80
14097;DHT22;7125;48.106;11.544;2022-10-29T13:18:07;23.00;87.50
14097;DHT22;7125;48.106;11.544;2022-10-29T13:20:44;23.00;88.10
14097;DHT22;7125;48.106;11.544;2022-10-29T13:23:29;22.90;88.40
14097;DHT22;7125;48.106;11.544;2022-10-29T13:25:57;22.90;90.30
14097;DHT22;7125;48.106;11.544;2022-10-29T13:28:50;22.90;90.40
14097;DHT22;7125;48.106;11.544;2022-10-29T13:31:44;22.80;91.00
14097;DHT22;7125;48.106;11.544;2022-10-29T13:40:54;22.60;89.80
14097;DHT22;7125;48.106;11.544;2022-10-29T13:43:21;22.60;89.90
14097;DHT22;7125;48.106;11.544;2022-10-29T13:46:00;22.50;90.20
14097;DHT22;7125;48.106;11.544;2022-10-29T13:48:32;22.30;90.10
14097;DHT22;7125;48.106;11.544;2022-10-29T13:51:04;22.20;91.80
14097;DHT22;7125;48.106;11.544;2022-10-29T13:53:39;22.10;94.80
14097;DHT22;7125;48.106;11.544;2022-10-29T13:56:09;21.90;95.90
14097;DHT22;7125;48.106;11.544;2022-10-29T13:58:40;21.80;97.30
14097;DHT22;7125;48.106;11.544;2022-10-29T14:01:13;21.70;97.60
14097;DHT22;7125;48.106;11.544;2022-10-29T14:03:56;21.60;98.10
14097;DHT22;7125;48.106;11.544;2022-10-29T14:06:29;21.50;99.10
14097;DHT22;7125;48.106;11.544;2022-10-29T14:09:06;21.30;99.40
14097;DHT22;7125;48.106;11.544;2022-10-29T14:11:38;21.20;99.70
14097;DHT22;7125;48.106;11.544;2022-10-29T14:14:24;21.00;99.90
14097;DHT22;7125;48.106;11.544;2022-10-29T14:17:11;21.00;99.90
14097;DHT22;7125;48.106;11.544;2022-10-29T14:19:43;20.90;99.90
14097;DHT22;7125;48.106;11.544;2022-10-29T14:22:21;20.80;99.90
14097;DHT22;7125;48.106;11.544;2022-10-29T14:24:54;20.70;99.90
14097;DHT22;7125;48.106;11.544;2022-10-29T14:27:21;20.60;99.90
14097;DHT22;7125;48.106;11.544;2022-10-29T14:29:48;20.50;99.90
14097;DHT22;7125;48.106;11.544;2022-10-29T14:32:17;20.40;99.90
14097;DHT22;7125;48.106;11.544;2022-10-29T14:34:48;20.40;99.90
14097;DHT22;7125;48.106;11.544;2022-10-29T14:37:18;20.40;99.90
14097;DHT22;7125;48.106;11.544;2022-10-29T14:39:50;20.50;99.90
14097;DHT22;7125;48.106;11.544;2022-10-29T14:42:20;20.50;99.90
14097;DHT22;7125;48.106;11.544;2022-10-29T14:44:51;20.60;99.90
14097;DHT22;7125;48.106;11.544;2022-10-29T14:47:22;20.60;99.90
14097;DHT22;7125;48.106;11.544;2022-10-29T14:49:52;20.50;99.90
14097;DHT22;7125;48.106;11.544;2022-10-29T14:52:27;20.40;99.90
14097;DHT22;7125;48.106;11.544;2022-10-29T14:54:58;20.30;99.90
14097;DHT22;7125;48.106;11.544;2022-10-29T14:57:26;20.30;99.90
14097;DHT22;7125;48.106;11.544;2022-10-29T14:59:57;20.20;99.90
14097;DHT22;7125;48.106;11.544;2022-10-29T15:02:31;20.20;99.90
14097;DHT22;7125;48.106;11.544;2022-10-29T15:05:01;20.10;99.90
14097;DHT22;7125;48.106;11.544;2022-10-29T15:07:30;20.10;99.90
14097;DHT22;7125;48.106;11.544;2022-10-29T15:10:19;20.00;99.90
14097;DHT22;7125;48.106;11.544;2022-10-29T15:12:47;19.90;99.90
14097;DHT22;7125;48.106;11.544;2022-10-29T15:15:23;19.80;99.90
14097;DHT22;7125;48.106;11.544;2022-10-29T15:17:54;19.70;99.90
14097;DHT22;7125;48.106;11.544;2022-10-29T15:20:27;19.60;99.90
14097;DHT22;7125;48.106;11.544;2022-10-29T15:22:56;19.40;99.90
14097;DHT22;7125;48.106;11.544;2022-10-29T15:25:28;19.30;99.90
14097;DHT22;7125;48.106;11.544;2022-10-29T15:27:56;19.10;99.90
14097;DHT22;7125;48.106;11.544;2022-10-29T15:30:30;19.00;99.90
14097;DHT22;7125;48.106;11.544;2022-10-29T15:32:59;18.90;99.90
14097;DHT22;7125;48.106;11.544;2022-10-29T15:35:28;18.70;99.90
14097;DHT22;7125;48.106;11.544;2022-10-29T15:37:55;18.60;99.90
14097;DHT22;7125;48.106;11.544;2022-10-29T15:40:23;18.50;99.90
14097;DHT22;7125;48.106;11.544;2022-10-29T15:42:52;18.30;99.90
14097;DHT22;7125;48.106;11.544;2022-10-29T15:45:22;18.20;99.90
14097;DHT22;7125;48.106;11.544;2022-10-29T15:47:51;18.10;99.90
14097;DHT22;7125;48.106;11.544;2022-10-29T15:50:19;17.90;99.90
14097;DHT22;7125;48.106;11.544;2022-10-29T15:52:53;17.80;99.90
14097;DHT22;7125;48.106;11.544;2022-10-29T15:55:26;17.70;99.90
14097;DHT22;7125;48.106;11.544;2022-10-29T15:57:58;17.50;99.90
14097;DHT22;7125;48.106;11.544;2022-10-29T16:00:25;17.40;99.90
14097;DHT22;7125;48.106;11.544;2022-10-29T16:02:54;17.30;99.90
14097;DHT22;7125;48.106;11.544;2022-10-29T16:05:22;17.20;99.90
14097;DHT22;7125;48.106;11.544;2022-10-29T16:07:49;17.00;99.90
14097;DHT22;7125;48.106;11.544;2022-10-29T16:10:19;16.90;99.90
14097;DHT22;7125;48.106;11.544;2022-10-29T16:12:47;16.80;99.90
14097;DHT22;7125;48.106;11.544;2022-10-29T16:15:17;16.60;99.90
14097;DHT22;7125;48.106;11.544;2022-10-29T16:17:44;16.50;99.90
14097;DHT22;7125;48.106;11.544;2022-10-29T16:20:16;16.40;99.90
14097;DHT22;7125;48.106;11.544;2022-10-29T16:22:43;16.30;99.90
14097;DHT22;7125;48.106;11.544;2022-10-29T16:25:25;16.20;99.90
14097;DHT22;7125;48.106;11.544;2022-10-29T16:27:54;16.10;99.90